createdAt,value
2017-11-12T00:00:34.440Z,100019.47
2017-11-12T00:03:03.360Z,100016.69
2017-11-12T00:05:32.237Z,100021.62
2017-11-12T00:08:00.658Z,100018.85
2017-11-12T00:10:29.006Z,100012.92
2017-11-12T00:12:57.481Z,100012.52
2017-11-12T00:15:25.995Z,100012.92
2017-11-12T00:17:58.392Z,100006.73
2017-11-12T00:20:26.804Z,100012.72
2017-11-12T00:22:55.087Z,100012.72
2017-11-12T00:25:23.424Z,100010.92
2017-11-12T00:27:51.789Z,100015.90
2017-11-12T00:30:20.205Z,100008.14
2017-11-12T00:32:48.581Z,99998.23
2017-11-12T00:35:16.895Z,100000.22
2017-11-12T00:37:45.304Z,100005.19
2017-11-12T00:40:14.325Z,100006.58
2017-11-12T00:42:42.623Z,100002.00
2017-11-12T00:45:11.120Z,100009.17
2017-11-12T00:47:39.387Z,100009.76
2017-11-12T00:50:07.678Z,100010.75
2017-11-12T00:52:36.013Z,100014.51
2017-11-12T00:55:04.514Z,100011.73
2017-11-12T00:57:32.816Z,100011.53
2017-11-12T01:00:01.070Z,100020.06
2017-11-12T01:02:29.469Z,100025.62
2017-11-12T01:04:57.751Z,100022.26
2017-11-12T01:07:26.077Z,100026.42
2017-11-12T01:09:54.402Z,100024.63
2017-11-12T01:12:22.717Z,100027.80
2017-11-12T01:14:51.049Z,100024.81
2017-11-12T01:17:19.362Z,100024.03
2017-11-12T01:19:47.649Z,100031.36
2017-11-12T01:22:15.943Z,100035.75
2017-11-12T01:24:44.285Z,100034.75
2017-11-12T01:27:12.588Z,100026.41
2017-11-12T01:29:41.181Z,100033.36
2017-11-12T01:32:09.649Z,100026.01
2017-11-12T01:34:38.088Z,100027.80
2017-11-12T01:37:06.409Z,100027.59
2017-11-12T01:39:34.873Z,100027.59
2017-11-12T01:42:03.170Z,100028.20
2017-11-12T01:44:31.613Z,100029.97
2017-11-12T01:46:59.906Z,100028.78
2017-11-12T01:49:28.190Z,100027.39
2017-11-12T01:51:56.509Z,100027.19
2017-11-12T01:54:24.927Z,100023.63
2017-11-12T01:56:53.285Z,100018.85
2017-11-12T01:59:21.705Z,100020.88
2017-11-12T02:01:50.008Z,100029.20
2017-11-12T02:04:18.464Z,100020.88
2017-11-12T02:06:46.765Z,100013.13
2017-11-12T02:09:15.234Z,100024.23
2017-11-12T02:11:44.288Z,100021.86
2017-11-12T02:14:12.560Z,100023.25
2017-11-12T02:16:40.868Z,100033.37
2017-11-12T02:19:09.197Z,100031.98
2017-11-12T02:21:37.509Z,100026.83
2017-11-12T02:24:05.858Z,100029.43
2017-11-12T02:26:34.172Z,100030.59
2017-11-12T02:29:02.478Z,100029.03
2017-11-12T02:31:30.810Z,100022.08
2017-11-12T02:33:59.181Z,100030.82
2017-11-12T02:36:27.504Z,100030.42
2017-11-12T02:38:55.788Z,100031.00
2017-11-12T02:41:24.096Z,100034.18
2017-11-12T02:43:52.402Z,100031.41
2017-11-12T02:46:20.781Z,100034.41
2017-11-12T02:48:49.080Z,100036.78
2017-11-12T02:51:17.609Z,100036.55
2017-11-12T02:53:45.973Z,100032.61
2017-11-12T02:56:14.306Z,100040.14
2017-11-12T02:58:42.593Z,100035.16
2017-11-12T03:01:11.066Z,100042.69
2017-11-12T03:03:39.400Z,100044.89
2017-11-12T03:06:07.726Z,100041.35
2017-11-12T03:08:36.088Z,100047.66
2017-11-12T03:11:04.384Z,100041.35
2017-11-12T03:13:32.833Z,100042.56
2017-11-12T03:16:01.136Z,100046.10
2017-11-12T03:18:29.593Z,100044.13
2017-11-12T03:20:57.923Z,100045.34
2017-11-12T03:23:26.326Z,100048.70
2017-11-12T03:25:54.649Z,100049.69
2017-11-12T03:28:22.932Z,100051.08
2017-11-12T03:30:51.238Z,100053.27
2017-11-12T03:33:19.553Z,100056.05
2017-11-12T03:35:47.845Z,100058.60
2017-11-12T03:38:16.171Z,100047.66
2017-11-12T03:40:44.492Z,100047.66
2017-11-12T03:43:12.760Z,100044.31
2017-11-12T03:45:41.060Z,100041.53
2017-11-12T03:48:09.508Z,100041.35
2017-11-12T03:50:37.817Z,100042.92
2017-11-12T03:53:06.102Z,100040.72
2017-11-12T03:55:34.464Z,100045.11
2017-11-12T03:58:02.750Z,100046.33
2017-11-12T04:00:31.384Z,100041.94
2017-11-12T04:02:59.767Z,100043.95
2017-11-12T04:05:28.113Z,100040.37
2017-11-12T04:07:56.537Z,100039.56
2017-11-12T04:10:24.864Z,100044.53
2017-11-12T04:12:54.942Z,100040.77
2017-11-12T04:15:27.164Z,100037.99
2017-11-12T04:17:56.005Z,100037.59
2017-11-12T04:20:24.296Z,100036.20
2017-11-12T04:22:52.577Z,100035.39
2017-11-12T04:25:20.886Z,100038.40
2017-11-12T04:27:49.313Z,100034.23
2017-11-12T04:30:17.645Z,100036.20
2017-11-12T04:32:46.029Z,100032.03
2017-11-12T04:35:14.360Z,100036.20
2017-11-12T04:37:42.632Z,100036.38
2017-11-12T04:40:10.966Z,100028.05
2017-11-12T04:42:39.235Z,100033.02
2017-11-12T04:45:07.693Z,100031.98
2017-11-12T04:47:36.129Z,100040.95
2017-11-12T04:50:04.433Z,100042.92
2017-11-12T04:52:32.734Z,100037.54
2017-11-12T04:55:01.176Z,100032.39
2017-11-12T04:57:29.512Z,100035.39
2017-11-12T04:59:57.801Z,100033.20
2017-11-12T05:02:26.153Z,100028.85
2017-11-12T05:04:54.564Z,100030.77
2017-11-12T05:07:22.972Z,100030.23
2017-11-12T05:09:51.256Z,100016.70
2017-11-12T05:12:19.568Z,100020.70
2017-11-12T05:14:48.013Z,100020.52
2017-11-12T05:17:16.331Z,100021.91
2017-11-12T05:19:44.612Z,100018.72
2017-11-12T05:22:13.004Z,100017.92
2017-11-12T05:24:41.322Z,100014.55
2017-11-12T05:27:09.613Z,100017.33
2017-11-12T05:29:37.906Z,100013.39
2017-11-12T05:32:06.292Z,100006.22
2017-11-12T05:34:41.451Z,100000.48
2017-11-12T05:37:09.776Z,99997.30
2017-11-12T05:39:38.033Z,100001.65
2017-11-12T05:42:06.352Z,99997.89
2017-11-12T05:44:35.692Z,99995.52
2017-11-12T05:47:04.236Z,99996.32
2017-11-12T05:49:32.598Z,99993.31
2017-11-12T05:52:00.963Z,99997.30
2017-11-12T05:54:29.255Z,99996.32
2017-11-12T05:56:57.582Z,99997.53
2017-11-12T05:59:25.845Z,99993.37
2017-11-12T06:01:54.226Z,99991.57
2017-11-12T06:04:22.542Z,100000.08
2017-11-12T06:06:51.018Z,99995.73
2017-11-12T06:09:19.293Z,100000.72
2017-11-12T06:11:47.596Z,99994.53
2017-11-12T06:14:15.859Z,99986.42
2017-11-12T06:16:44.341Z,99992.96
2017-11-12T06:19:12.669Z,99988.62
2017-11-12T06:21:41.005Z,99985.25
2017-11-12T06:24:09.344Z,99987.80
2017-11-12T06:26:37.688Z,99983.06
2017-11-12T06:29:06.114Z,99987.42
2017-11-12T06:31:34.451Z,99980.28
2017-11-12T06:34:02.754Z,99985.25
2017-11-12T06:36:31.086Z,99988.23
2017-11-12T06:38:59.324Z,99991.01
2017-11-12T06:41:27.832Z,99985.45
2017-11-12T06:43:56.085Z,99980.47
2017-11-12T06:46:24.414Z,99975.72
2017-11-12T06:48:52.733Z,99973.53
2017-11-12T06:51:21.143Z,99970.98
2017-11-12T06:53:49.453Z,99971.56
2017-11-12T06:56:17.777Z,99966.62
2017-11-12T06:58:47.059Z,99958.30
2017-11-12T07:01:15.445Z,99958.52
2017-11-12T07:03:43.799Z,99951.12
2017-11-12T07:06:12.321Z,99954.89
2017-11-12T07:08:40.749Z,99955.30
2017-11-12T07:11:09.072Z,99953.72
2017-11-12T07:13:37.341Z,99950.70
2017-11-12T07:16:05.669Z,99951.24
2017-11-12T07:18:34.089Z,99955.36
2017-11-12T07:21:02.421Z,99952.57
2017-11-12T07:23:30.707Z,99954.36
2017-11-12T07:25:59.004Z,99952.88
2017-11-12T07:28:27.377Z,99950.11
2017-11-12T07:30:55.691Z,99953.05
2017-11-12T07:33:24.144Z,99948.66
2017-11-12T07:35:52.478Z,99953.22
2017-11-12T07:38:20.757Z,99943.27
2017-11-12T07:40:49.111Z,99951.78
2017-11-12T07:43:17.438Z,99944.89
2017-11-12T07:45:45.856Z,99941.48
2017-11-12T07:48:14.137Z,99937.31
2017-11-12T07:50:42.608Z,99940.27
2017-11-12T07:53:10.950Z,99938.29
2017-11-12T07:55:39.377Z,99939.09
2017-11-12T07:58:07.641Z,99935.86
2017-11-12T08:00:38.198Z,99935.23
2017-11-12T08:03:08.084Z,99935.02
2017-11-12T08:05:36.696Z,99934.61
2017-11-12T08:08:05.065Z,99931.07
2017-11-12T08:10:33.445Z,99937.20
2017-11-12T08:13:01.727Z,99934.43
2017-11-12T08:15:30.077Z,99929.91
2017-11-12T08:17:58.353Z,99922.97
2017-11-12T08:20:26.713Z,99920.64
2017-11-12T08:22:55.077Z,99928.16
2017-11-12T08:25:23.734Z,99920.64
2017-11-12T08:27:53.161Z,99921.23
2017-11-12T08:30:21.575Z,99909.48
2017-11-12T08:32:50.057Z,99913.70
2017-11-12T08:35:18.565Z,99910.91
2017-11-12T08:37:47.902Z,99907.10
2017-11-12T08:40:16.250Z,99906.05
2017-11-12T08:42:44.547Z,99894.41
2017-11-12T08:45:14.596Z,99893.22
2017-11-12T08:47:42.957Z,99891.32
2017-11-12T08:50:11.263Z,99887.63
2017-11-12T08:52:39.731Z,99885.65
2017-11-12T08:55:08.050Z,99886.73
2017-11-12T08:57:36.323Z,99880.96
2017-11-12T09:00:05.188Z,99880.56
2017-11-12T09:02:33.668Z,99882.94
2017-11-12T09:05:02.393Z,99876.61
2017-11-12T09:07:30.817Z,99872.85
2017-11-12T09:10:01.676Z,99868.11
2017-11-12T09:12:35.721Z,99854.22
2017-11-12T09:15:04.283Z,99864.56
2017-11-12T09:17:34.085Z,99858.02
2017-11-12T09:20:02.563Z,99860.04
2017-11-12T09:22:31.095Z,99860.44
2017-11-12T09:24:59.612Z,99858.04
2017-11-12T09:27:27.954Z,99852.69
2017-11-12T09:29:56.255Z,99851.09
2017-11-12T09:32:24.661Z,99841.77
2017-11-12T09:34:53.920Z,99841.19
2017-11-12T09:37:22.242Z,99832.68
2017-11-12T09:39:50.586Z,99839.89
2017-11-12T09:42:20.010Z,99830.77
2017-11-12T09:44:48.710Z,99830.43
2017-11-12T09:47:17.068Z,99824.86
2017-11-12T09:49:45.376Z,99816.61
2017-11-12T09:52:13.717Z,99809.90
2017-11-12T09:54:42.031Z,99812.81
2017-11-12T09:57:10.610Z,99809.05
2017-11-12T09:59:39.337Z,99811.02
2017-11-12T10:02:08.737Z,99818.55
2017-11-12T10:04:37.123Z,99806.89
2017-11-12T10:07:05.444Z,99804.52
2017-11-12T10:09:34.439Z,99801.33
2017-11-12T10:12:03.030Z,99801.73
2017-11-12T10:14:31.501Z,99795.37
2017-11-12T10:16:59.869Z,99801.15
2017-11-12T10:19:28.888Z,99796.41
2017-11-12T10:21:57.772Z,99801.16
2017-11-12T10:24:26.221Z,99796.22
2017-11-12T10:26:55.661Z,99809.31
2017-11-12T10:29:24.253Z,99808.73
2017-11-12T10:31:52.717Z,99809.72
2017-11-12T10:34:21.069Z,99798.20
2017-11-12T10:36:49.585Z,99808.95
2017-11-12T10:39:17.916Z,99797.21
2017-11-12T10:41:46.383Z,99786.54
2017-11-12T10:44:14.724Z,99795.06
2017-11-12T10:46:43.645Z,99788.25
2017-11-12T10:49:12.094Z,99789.05
2017-11-12T10:51:40.493Z,99787.88
2017-11-12T10:54:09.472Z,99776.13
2017-11-12T10:56:39.611Z,99771.39
2017-11-12T10:59:09.482Z,99765.03
2017-11-12T11:01:39.121Z,99753.33
2017-11-12T11:04:08.288Z,99745.84
2017-11-12T11:06:36.769Z,99744.85
2017-11-12T11:09:05.613Z,99744.48
2017-11-12T11:11:33.929Z,99738.09
2017-11-12T11:14:02.242Z,99739.70
2017-11-12T11:16:30.619Z,99732.93
2017-11-12T11:18:59.506Z,99731.14
2017-11-12T11:21:28.169Z,99727.77
2017-11-12T11:23:56.493Z,99726.16
2017-11-12T11:26:24.830Z,99721.19
2017-11-12T11:28:53.261Z,99726.34
2017-11-12T11:31:21.573Z,99727.11
2017-11-12T11:33:49.901Z,99716.20
2017-11-12T11:36:18.241Z,99707.83
2017-11-12T11:38:52.149Z,99707.66
2017-11-12T11:41:20.608Z,99710.65
2017-11-12T11:43:48.867Z,99698.95
2017-11-12T11:46:18.145Z,99704.51
2017-11-12T11:48:46.439Z,99700.16
2017-11-12T11:51:14.834Z,99698.59
2017-11-12T11:53:43.200Z,99699.39
2017-11-12T11:56:11.545Z,99695.22
2017-11-12T11:58:39.952Z,99684.29
2017-11-12T12:01:08.242Z,99685.67
2017-11-12T12:03:36.566Z,99683.30
2017-11-12T12:06:04.889Z,99676.34
2017-11-12T12:08:33.218Z,99666.44
2017-11-12T12:11:01.501Z,99669.00
2017-11-12T12:13:29.808Z,99663.66
2017-11-12T12:15:58.122Z,99653.93
2017-11-12T12:18:26.444Z,99654.92
2017-11-12T12:20:54.979Z,99644.98
2017-11-12T12:23:26.539Z,99636.45
2017-11-12T12:25:56.652Z,99623.77
2017-11-12T12:28:26.112Z,99626.14
2017-11-12T12:30:56.513Z,99626.55
2017-11-12T12:33:29.897Z,99621.61
2017-11-12T12:35:59.916Z,99616.41
2017-11-12T12:38:29.345Z,99605.11
2017-11-12T12:40:57.872Z,99603.94
2017-11-12T12:43:26.156Z,99586.24
2017-11-12T12:45:54.512Z,99579.08
2017-11-12T12:48:22.795Z,99567.56
2017-11-12T12:50:51.170Z,99567.56
2017-11-12T12:53:20.214Z,99549.49
2017-11-12T12:55:48.579Z,99543.34
2017-11-12T12:58:17.028Z,99536.40
2017-11-12T13:00:45.441Z,99535.41
2017-11-12T13:03:13.741Z,99533.22
2017-11-12T13:05:42.069Z,99525.06
2017-11-12T13:08:10.532Z,99523.27
2017-11-12T13:10:38.881Z,99511.94
2017-11-12T13:13:07.288Z,99514.13
2017-11-12T13:15:42.192Z,99516.33
2017-11-12T13:18:12.380Z,99513.55
2017-11-12T13:20:40.718Z,99526.86
2017-11-12T13:23:09.012Z,99537.17
2017-11-12T13:25:37.325Z,99538.81
2017-11-12T13:28:05.919Z,99555.27
2017-11-12T13:30:40.125Z,99563.79
2017-11-12T13:33:09.399Z,99558.63
2017-11-12T13:35:37.716Z,99553.66
2017-11-12T13:38:06.057Z,99567.92
2017-11-12T13:40:34.580Z,99572.06
2017-11-12T13:43:03.012Z,99574.66
2017-11-12T13:45:31.488Z,99578.23
2017-11-12T13:47:59.940Z,99574.84
2017-11-12T13:50:28.236Z,99578.02
2017-11-12T13:52:57.100Z,99578.20
2017-11-12T13:55:25.424Z,99580.98
2017-11-12T13:57:53.896Z,99579.19
2017-11-12T14:00:22.408Z,99576.01
2017-11-12T14:02:50.833Z,99574.40
2017-11-12T14:05:21.241Z,99578.17
2017-11-12T14:07:49.569Z,99580.14
2017-11-12T14:10:17.910Z,99570.82
2017-11-12T14:12:46.197Z,99567.64
2017-11-12T14:15:14.492Z,99555.94
2017-11-12T14:17:42.952Z,99552.20
2017-11-12T14:20:11.568Z,99550.23
2017-11-12T14:22:40.232Z,99557.55
2017-11-12T14:25:08.558Z,99551.22
2017-11-12T14:27:37.080Z,99548.84
2017-11-12T14:30:05.201Z,99547.45
2017-11-12T14:32:33.512Z,99535.34
2017-11-12T14:35:01.906Z,99540.91
2017-11-12T14:37:30.425Z,99538.13
2017-11-12T14:40:01.230Z,99534.36
2017-11-12T14:42:30.509Z,99531.18
2017-11-12T14:44:58.975Z,99526.42
2017-11-12T14:47:27.386Z,99528.40
2017-11-12T14:49:55.672Z,99523.83
2017-11-12T14:52:23.987Z,99521.86
2017-11-12T14:54:52.396Z,99528.58
2017-11-12T14:57:20.725Z,99525.62
2017-11-12T14:59:49.044Z,99531.58
2017-11-12T15:02:17.473Z,99537.53
2017-11-12T15:04:47.673Z,99539.91
2017-11-12T15:07:15.969Z,99529.20
2017-11-12T15:09:46.130Z,99522.66
2017-11-12T15:12:15.217Z,99519.48
2017-11-12T15:14:43.709Z,99527.02
2017-11-12T15:17:12.012Z,99523.64
2017-11-12T15:19:40.304Z,99518.09
2017-11-12T15:22:11.482Z,99522.84
2017-11-12T15:24:40.605Z,99520.06
2017-11-12T15:27:11.616Z,99522.03
2017-11-12T15:29:40.889Z,99523.24
2017-11-12T15:32:09.500Z,99514.50
2017-11-12T15:34:38.528Z,99522.66
2017-11-12T15:37:06.928Z,99519.26
2017-11-12T15:39:36.341Z,99512.13
2017-11-12T15:42:05.273Z,99511.14
2017-11-12T15:44:33.709Z,99506.75
2017-11-12T15:47:03.509Z,99494.25
2017-11-12T15:49:32.077Z,99490.30
2017-11-12T15:52:01.276Z,99492.27
2017-11-12T15:54:29.776Z,99484.13
2017-11-12T15:56:58.109Z,99482.95
2017-11-12T15:59:26.436Z,99485.33
2017-11-12T16:01:54.729Z,99484.13
2017-11-12T16:04:23.066Z,99489.89
2017-11-12T16:06:51.480Z,99490.30
2017-11-12T16:09:19.790Z,99493.08
2017-11-12T16:11:48.157Z,99502.58
2017-11-12T16:14:16.430Z,99502.19
2017-11-12T16:16:44.759Z,99493.41
2017-11-12T16:19:13.060Z,99495.05
2017-11-12T16:21:41.341Z,99500.42
2017-11-12T16:24:09.644Z,99502.40
2017-11-12T16:26:37.946Z,99500.61
2017-11-12T16:29:06.913Z,99492.06
2017-11-12T16:31:35.193Z,99487.52
2017-11-12T16:34:03.441Z,99492.09
2017-11-12T16:36:31.816Z,99487.92
2017-11-12T16:39:00.271Z,99477.79
2017-11-12T16:41:28.704Z,99477.98
2017-11-12T16:43:56.964Z,99466.45
2017-11-12T16:46:25.276Z,99465.07
2017-11-12T16:48:56.521Z,99453.95
2017-11-12T16:51:24.870Z,99446.23
2017-11-12T16:53:53.281Z,99447.41
2017-11-12T16:56:21.728Z,99451.58
2017-11-12T16:58:51.072Z,99443.64
2017-11-12T17:01:19.425Z,99451.98
2017-11-12T17:03:47.749Z,99456.14
2017-11-12T17:06:16.305Z,99459.33
2017-11-12T17:08:44.577Z,99459.73
2017-11-12T17:11:13.016Z,99454.36
2017-11-12T17:13:41.387Z,99455.16
2017-11-12T17:16:09.764Z,99451.79
2017-11-12T17:18:38.053Z,99455.55
2017-11-12T17:21:06.361Z,99463.50
2017-11-12T17:23:34.773Z,99466.09
2017-11-12T17:26:03.072Z,99461.12
2017-11-12T17:28:31.316Z,99458.73
2017-11-12T17:30:59.732Z,99457.94
2017-11-12T17:33:28.189Z,99448.61
2017-11-12T17:35:56.497Z,99450.59
2017-11-12T17:38:24.852Z,99458.34
2017-11-12T17:40:53.264Z,99463.50
2017-11-12T17:43:21.526Z,99464.11
2017-11-12T17:45:50.005Z,99465.28
2017-11-12T17:48:18.557Z,99471.83
2017-11-12T17:50:46.874Z,99472.23
2017-11-12T17:53:15.412Z,99478.19
2017-11-12T17:55:43.730Z,99485.14
2017-11-12T17:58:12.210Z,99484.16
2017-11-12T18:00:41.126Z,99474.23
2017-11-12T18:03:09.746Z,99480.60
2017-11-12T18:05:38.885Z,99490.14
2017-11-12T18:08:07.617Z,99487.58
2017-11-12T18:10:36.233Z,99486.96
2017-11-12T18:13:04.688Z,99492.92
2017-11-12T18:15:33.021Z,99506.63
2017-11-12T18:18:01.859Z,99517.12
2017-11-12T18:21:29.479Z,99535.01
2017-11-12T18:23:57.773Z,99530.04
2017-11-12T18:26:26.425Z,99549.71
2017-11-12T18:28:54.716Z,99546.71
2017-11-12T18:31:23.125Z,99544.73
2017-11-12T18:33:52.257Z,99546.53
2017-11-12T18:36:20.705Z,99546.53
2017-11-12T18:38:50.277Z,99547.89
2017-11-12T18:41:18.633Z,99543.91
2017-11-12T18:43:46.976Z,99535.45
2017-11-12T18:46:15.289Z,99522.31
2017-11-12T18:48:43.952Z,99515.13
2017-11-12T18:51:13.638Z,99521.05
2017-11-12T18:53:41.951Z,99528.52
2017-11-12T18:56:11.002Z,99536.08
2017-11-12T18:58:39.533Z,99528.11
2017-11-12T19:01:08.369Z,99529.29
2017-11-12T19:03:37.465Z,99539.59
2017-11-12T19:06:10.193Z,99543.73
2017-11-12T19:08:38.588Z,99549.88
2017-11-12T19:11:06.912Z,99544.31
2017-11-12T19:13:35.209Z,99546.47
2017-11-12T19:16:03.625Z,99546.66
2017-11-12T19:18:32.173Z,99553.39
2017-11-12T19:21:00.587Z,99552.22
2017-11-12T19:23:29.031Z,99563.30
2017-11-12T19:25:57.855Z,99559.92
2017-11-12T19:28:26.385Z,99559.09
2017-11-12T19:30:54.728Z,99554.92
2017-11-12T19:33:23.037Z,99541.80
2017-11-12T19:35:51.364Z,99535.63
2017-11-12T19:38:19.660Z,99536.80
2017-11-12T19:40:48.124Z,99550.28
2017-11-12T19:43:16.776Z,99581.24
2017-11-12T19:45:45.068Z,99614.97
2017-11-12T19:48:13.416Z,99631.42
2017-11-12T19:50:41.736Z,99637.20
2017-11-12T19:53:10.021Z,99639.76
2017-11-12T19:55:38.948Z,99647.11
2017-11-12T19:58:07.219Z,99649.52
2017-11-12T20:00:35.677Z,99642.58
2017-11-12T20:03:04.258Z,99642.39
2017-11-12T20:05:32.824Z,99640.60
2017-11-12T20:08:01.222Z,99641.19
2017-11-12T20:10:34.112Z,99637.83
2017-11-12T20:13:03.425Z,99635.63
2017-11-12T20:15:31.799Z,99631.46
2017-11-12T20:18:00.240Z,99629.05
2017-11-12T20:20:28.613Z,99635.19
2017-11-12T20:22:57.092Z,99644.50
2017-11-12T20:25:25.661Z,99648.05
2017-11-12T20:27:54.257Z,99643.48
2017-11-12T20:30:22.777Z,99658.98
2017-11-12T20:32:52.025Z,99670.67
2017-11-12T20:35:20.350Z,99679.59
2017-11-12T20:37:48.627Z,99686.13
2017-11-12T20:40:17.095Z,99699.58
2017-11-12T20:42:45.520Z,99700.52
2017-11-12T20:45:13.888Z,99711.23
2017-11-12T20:47:42.173Z,99711.04
2017-11-12T20:50:10.621Z,99711.84
2017-11-12T20:52:38.975Z,99709.26
2017-11-12T20:55:07.407Z,99705.84
2017-11-12T20:57:38.145Z,99702.04
2017-11-12T21:00:08.688Z,99696.70
2017-11-12T21:02:37.349Z,99701.02
2017-11-12T21:05:05.672Z,99704.99
2017-11-12T21:07:37.613Z,99708.49
2017-11-12T21:10:07.753Z,99714.31
2017-11-12T21:12:36.098Z,99723.80
2017-11-12T21:15:04.624Z,99724.94
2017-11-12T21:17:33.097Z,99732.91
2017-11-12T21:20:01.554Z,99739.05
2017-11-12T21:22:30.074Z,99752.30
2017-11-12T21:24:58.424Z,99751.27
2017-11-12T21:27:27.090Z,99760.80
2017-11-12T21:29:55.721Z,99757.63
2017-11-12T21:32:24.213Z,99753.39
2017-11-12T21:34:52.705Z,99752.40
2017-11-12T21:37:21.380Z,99757.76
2017-11-12T21:39:49.792Z,99758.20
2017-11-12T21:42:18.268Z,99760.58
2017-11-12T21:44:46.562Z,99766.13
2017-11-12T21:47:14.877Z,99771.03
2017-11-12T21:49:43.149Z,99767.84
2017-11-12T21:52:12.237Z,99763.69
2017-11-12T21:54:40.712Z,99769.86
2017-11-12T21:57:11.837Z,99770.84
2017-11-12T21:59:44.656Z,99778.91
2017-11-12T22:02:13.546Z,99773.34
2017-11-12T22:04:41.869Z,99775.32
2017-11-12T22:07:10.177Z,99771.16
2017-11-12T22:09:38.510Z,99779.25
2017-11-12T22:12:06.929Z,99776.25
2017-11-12T22:14:35.534Z,99779.44
2017-11-12T22:17:03.982Z,99775.62
2017-11-12T22:19:32.289Z,99778.86
2017-11-12T22:22:00.577Z,99783.55
2017-11-12T22:24:28.881Z,99785.13
2017-11-12T22:26:57.190Z,99787.13
2017-11-12T22:29:25.496Z,99786.55
2017-11-12T22:31:53.840Z,99788.28
2017-11-12T22:34:22.332Z,99790.26
2017-11-12T22:36:50.643Z,99795.05
2017-11-12T22:39:19.085Z,99802.97
2017-11-12T22:41:47.389Z,99802.52
2017-11-12T22:44:15.711Z,99807.86
2017-11-12T22:46:44.004Z,99813.39
2017-11-12T22:49:12.381Z,99828.86
2017-11-12T22:51:40.704Z,99839.14
2017-11-12T22:54:09.001Z,99844.70
2017-11-12T22:56:37.312Z,99850.42
2017-11-12T22:59:07.977Z,99863.32
2017-11-12T23:01:36.685Z,99869.09
2017-11-12T23:04:05.036Z,99867.32
2017-11-12T23:06:33.425Z,99872.23
2017-11-12T23:09:01.709Z,99868.24
2017-11-12T23:11:30.176Z,99863.25
2017-11-12T23:13:58.448Z,99856.52
2017-11-12T23:16:26.741Z,99864.42
2017-11-12T23:18:55.180Z,99861.66
2017-11-12T23:21:23.465Z,99865.83
2017-11-12T23:23:51.789Z,99870.20
2017-11-12T23:26:20.089Z,99864.59
2017-11-12T23:28:48.484Z,99877.13
2017-11-12T23:31:16.796Z,99877.27
2017-11-12T23:33:45.253Z,99883.98
2017-11-12T23:36:13.565Z,99894.50
2017-11-12T23:38:41.843Z,99898.67
2017-11-12T23:41:10.333Z,99898.02
2017-11-12T23:43:38.774Z,99895.72
2017-11-12T23:46:07.091Z,99892.48
2017-11-12T23:48:35.395Z,99897.39
2017-11-12T23:51:03.717Z,99903.01
2017-11-12T23:53:32.101Z,99906.23
2017-11-12T23:56:00.430Z,99913.06
2017-11-12T23:58:28.732Z,99912.30
